sensor_id;sensor_type;location;lat;lon;timestamp;P1;durP1;ratioP1;P2;durP2;ratioP2
24259;SDS011;12384;48.112;18.418;2022-08-20T00:00:26;13.53;;;11.60;;
24259;SDS011;12384;48.112;18.418;2022-08-20T00:02:57;13.30;;;12.10;;
24259;SDS011;12384;48.112;18.418;2022-08-20T00:05:31;12.17;;;11.07;;
24259;SDS011;12384;48.112;18.418;2022-08-20T00:08:02;12.43;;;11.43;;
24259;SDS011;12384;48.112;18.418;2022-08-20T00:10:33;11.67;;;10.77;;
24259;SDS011;12384;48.112;18.418;2022-08-20T00:13:05;11.90;;;10.80;;
24259;SDS011;12384;48.112;18.418;2022-08-20T00:15:43;12.63;;;11.57;;
24259;SDS011;12384;48.112;18.418;2022-08-20T00:18:13;12.07;;;11.17;;
24259;SDS011;12384;48.112;18.418;2022-08-20T00:20:43;12.30;;;11.20;;
24259;SDS011;12384;48.112;18.418;2022-08-20T00:23:14;11.40;;;10.53;;
24259;SDS011;12384;48.112;18.418;2022-08-20T00:25:44;12.80;;;11.70;;
24259;SDS011;12384;48.112;18.418;2022-08-20T00:28:13;11.60;;;10.60;;
24259;SDS011;12384;48.112;18.418;2022-08-20T00:30:42;10.97;;;10.17;;
24259;SDS011;12384;48.112;18.418;2022-08-20T00:33:13;10.70;;;9.80;;
24259;SDS011;12384;48.112;18.418;2022-08-20T00:35:46;11.83;;;10.93;;
24259;SDS011;12384;48.112;18.418;2022-08-20T00:38:17;11.00;;;10.07;;
24259;SDS011;12384;48.112;18.418;2022-08-20T00:40:49;11.13;;;10.23;;
24259;SDS011;12384;48.112;18.418;2022-08-20T00:43:25;11.23;;;10.23;;
24259;SDS011;12384;48.112;18.418;2022-08-20T00:45:56;15.10;;;13.23;;
24259;SDS011;12384;48.112;18.418;2022-08-20T00:48:26;18.13;;;13.50;;
24259;SDS011;12384;48.112;18.418;2022-08-20T00:51:02;14.77;;;13.17;;
24259;SDS011;12384;48.112;18.418;2022-08-20T00:53:33;13.20;;;12.20;;
24259;SDS011;12384;48.112;18.418;2022-08-20T00:56:05;11.30;;;10.40;;
24259;SDS011;12384;48.112;18.418;2022-08-20T00:58:36;11.10;;;10.17;;
24259;SDS011;12384;48.112;18.418;2022-08-20T01:01:06;10.67;;;9.80;;
24259;SDS011;12384;48.112;18.418;2022-08-20T01:03:36;10.67;;;9.87;;
24259;SDS011;12384;48.112;18.418;2022-08-20T01:06:05;11.63;;;10.73;;
24259;SDS011;12384;48.112;18.418;2022-08-20T01:08:37;11.97;;;10.97;;
24259;SDS011;12384;48.112;18.418;2022-08-20T01:11:09;12.83;;;11.80;;
24259;SDS011;12384;48.112;18.418;2022-08-20T01:13:42;13.07;;;11.97;;
24259;SDS011;12384;48.112;18.418;2022-08-20T01:16:16;13.73;;;12.43;;
24259;SDS011;12384;48.112;18.418;2022-08-20T01:18:48;14.90;;;13.23;;
24259;SDS011;12384;48.112;18.418;2022-08-20T01:21:19;14.70;;;13.30;;
24259;SDS011;12384;48.112;18.418;2022-08-20T01:23:53;14.00;;;12.60;;
24259;SDS011;12384;48.112;18.418;2022-08-20T01:26:29;15.07;;;12.77;;
24259;SDS011;12384;48.112;18.418;2022-08-20T01:29:03;14.00;;;12.63;;
24259;SDS011;12384;48.112;18.418;2022-08-20T01:31:35;12.87;;;11.73;;
24259;SDS011;12384;48.112;18.418;2022-08-20T01:34:06;14.50;;;13.23;;
24259;SDS011;12384;48.112;18.418;2022-08-20T01:36:38;13.70;;;12.60;;
24259;SDS011;12384;48.112;18.418;2022-08-20T01:39:13;15.33;;;13.97;;
24259;SDS011;12384;48.112;18.418;2022-08-20T01:41:48;14.10;;;12.70;;
24259;SDS011;12384;48.112;18.418;2022-08-20T01:44:25;18.57;;;13.70;;
24259;SDS011;12384;48.112;18.418;2022-08-20T01:46:56;14.50;;;13.00;;
24259;SDS011;12384;48.112;18.418;2022-08-20T01:49:38;13.90;;;12.60;;
24259;SDS011;12384;48.112;18.418;2022-08-20T01:52:11;14.03;;;12.47;;
24259;SDS011;12384;48.112;18.418;2022-08-20T01:54:44;12.93;;;11.73;;
24259;SDS011;12384;48.112;18.418;2022-08-20T01:57:15;11.67;;;10.67;;
24259;SDS011;12384;48.112;18.418;2022-08-20T01:59:46;12.03;;;11.13;;
24259;SDS011;12384;48.112;18.418;2022-08-20T02:02:16;12.53;;;11.33;;
24259;SDS011;12384;48.112;18.418;2022-08-20T02:04:45;13.20;;;11.93;;
24259;SDS011;12384;48.112;18.418;2022-08-20T02:07:16;13.80;;;12.50;;
24259;SDS011;12384;48.112;18.418;2022-08-20T02:09:47;12.80;;;11.60;;
24259;SDS011;12384;48.112;18.418;2022-08-20T02:12:18;13.13;;;12.00;;
24259;SDS011;12384;48.112;18.418;2022-08-20T02:14:47;13.23;;;11.93;;
24259;SDS011;12384;48.112;18.418;2022-08-20T02:17:18;12.67;;;11.53;;
24259;SDS011;12384;48.112;18.418;2022-08-20T02:19:50;12.47;;;11.57;;
24259;SDS011;12384;48.112;18.418;2022-08-20T02:22:22;13.00;;;11.67;;
24259;SDS011;12384;48.112;18.418;2022-08-20T02:24:55;12.20;;;11.10;;
24259;SDS011;12384;48.112;18.418;2022-08-20T02:27:25;12.27;;;11.20;;
24259;SDS011;12384;48.112;18.418;2022-08-20T02:29:55;12.20;;;11.10;;
24259;SDS011;12384;48.112;18.418;2022-08-20T02:32:24;14.13;;;12.87;;
24259;SDS011;12384;48.112;18.418;2022-08-20T02:35:00;14.00;;;12.53;;
24259;SDS011;12384;48.112;18.418;2022-08-20T02:37:29;14.07;;;12.60;;
24259;SDS011;12384;48.112;18.418;2022-08-20T02:39:58;12.60;;;11.53;;
24259;SDS011;12384;48.112;18.418;2022-08-20T02:42:28;12.43;;;11.53;;
24259;SDS011;12384;48.112;18.418;2022-08-20T02:44:56;12.10;;;11.23;;
24259;SDS011;12384;48.112;18.418;2022-08-20T02:47:25;11.47;;;10.57;;
24259;SDS011;12384;48.112;18.418;2022-08-20T02:49:55;12.00;;;10.63;;
24259;SDS011;12384;48.112;18.418;2022-08-20T02:52:25;11.03;;;10.23;;
24259;SDS011;12384;48.112;18.418;2022-08-20T02:54:54;11.60;;;10.50;;
24259;SDS011;12384;48.112;18.418;2022-08-20T02:57:23;11.13;;;10.30;;
24259;SDS011;12384;48.112;18.418;2022-08-20T02:59:53;10.67;;;9.77;;
24259;SDS011;12384;48.112;18.418;2022-08-20T03:02:21;9.73;;;9.13;;
24259;SDS011;12384;48.112;18.418;2022-08-20T03:04:50;10.00;;;9.20;;
24259;SDS011;12384;48.112;18.418;2022-08-20T03:07:18;10.67;;;9.60;;
24259;SDS011;12384;48.112;18.418;2022-08-20T03:09:48;10.37;;;9.57;;
24259;SDS011;12384;48.112;18.418;2022-08-20T03:12:16;10.17;;;9.40;;
24259;SDS011;12384;48.112;18.418;2022-08-20T03:14:45;9.07;;;8.43;;
24259;SDS011;12384;48.112;18.418;2022-08-20T03:17:15;9.00;;;8.40;;
24259;SDS011;12384;48.112;18.418;2022-08-20T03:19:43;8.70;;;8.20;;
24259;SDS011;12384;48.112;18.418;2022-08-20T03:22:12;9.83;;;9.00;;
24259;SDS011;12384;48.112;18.418;2022-08-20T03:24:41;9.50;;;8.70;;
24259;SDS011;12384;48.112;18.418;2022-08-20T03:27:11;11.90;;;10.80;;
24259;SDS011;12384;48.112;18.418;2022-08-20T03:29:40;10.87;;;9.97;;
24259;SDS011;12384;48.112;18.418;2022-08-20T03:32:08;10.57;;;9.70;;
24259;SDS011;12384;48.112;18.418;2022-08-20T03:34:38;16.83;;;12.83;;
24259;SDS011;12384;48.112;18.418;2022-08-20T03:37:06;13.43;;;11.63;;
24259;SDS011;12384;48.112;18.418;2022-08-20T03:39:35;12.43;;;11.00;;
24259;SDS011;12384;48.112;18.418;2022-08-20T03:42:04;11.60;;;10.57;;
24259;SDS011;12384;48.112;18.418;2022-08-20T03:44:33;11.07;;;10.10;;
24259;SDS011;12384;48.112;18.418;2022-08-20T03:47:03;10.40;;;9.50;;
24259;SDS011;12384;48.112;18.418;2022-08-20T03:49:34;10.90;;;10.10;;
24259;SDS011;12384;48.112;18.418;2022-08-20T03:52:05;10.77;;;10.00;;
24259;SDS011;12384;48.112;18.418;2022-08-20T03:54:34;9.80;;;9.20;;
24259;SDS011;12384;48.112;18.418;2022-08-20T03:57:02;10.33;;;9.63;;
24259;SDS011;12384;48.112;18.418;2022-08-20T03:59:38;9.93;;;9.07;;
24259;SDS011;12384;48.112;18.418;2022-08-20T04:02:07;11.97;;;10.87;;
24259;SDS011;12384;48.112;18.418;2022-08-20T04:04:36;13.63;;;11.17;;
24259;SDS011;12384;48.112;18.418;2022-08-20T04:07:12;10.83;;;9.93;;
24259;SDS011;12384;48.112;18.418;2022-08-20T04:09:42;9.87;;;9.00;;
24259;SDS011;12384;48.112;18.418;2022-08-20T04:12:11;10.00;;;9.03;;
24259;SDS011;12384;48.112;18.418;2022-08-20T04:14:40;10.20;;;9.33;;
24259;SDS011;12384;48.112;18.418;2022-08-20T04:17:10;9.43;;;8.83;;
24259;SDS011;12384;48.112;18.418;2022-08-20T04:19:39;9.00;;;8.30;;
24259;SDS011;12384;48.112;18.418;2022-08-20T04:22:11;8.90;;;8.30;;
24259;SDS011;12384;48.112;18.418;2022-08-20T04:24:40;8.50;;;8.00;;
24259;SDS011;12384;48.112;18.418;2022-08-20T04:27:10;8.10;;;7.60;;
24259;SDS011;12384;48.112;18.418;2022-08-20T04:29:40;8.70;;;8.10;;
24259;SDS011;12384;48.112;18.418;2022-08-20T04:32:10;9.47;;;8.67;;
24259;SDS011;12384;48.112;18.418;2022-08-20T04:34:42;9.63;;;8.93;;
24259;SDS011;12384;48.112;18.418;2022-08-20T04:37:14;9.80;;;9.00;;
24259;SDS011;12384;48.112;18.418;2022-08-20T04:39:47;11.80;;;10.53;;
24259;SDS011;12384;48.112;18.418;2022-08-20T04:42:31;11.67;;;10.67;;
24259;SDS011;12384;48.112;18.418;2022-08-20T04:44:59;12.00;;;11.00;;
24259;SDS011;12384;48.112;18.418;2022-08-20T04:47:28;11.53;;;10.47;;
24259;SDS011;12384;48.112;18.418;2022-08-20T04:50:00;13.13;;;11.83;;
24259;SDS011;12384;48.112;18.418;2022-08-20T04:52:30;12.67;;;11.47;;
24259;SDS011;12384;48.112;18.418;2022-08-20T04:54:58;13.43;;;11.90;;
24259;SDS011;12384;48.112;18.418;2022-08-20T04:57:27;13.00;;;11.73;;
24259;SDS011;12384;48.112;18.418;2022-08-20T04:59:56;14.77;;;13.27;;
24259;SDS011;12384;48.112;18.418;2022-08-20T05:02:25;17.03;;;13.00;;
24259;SDS011;12384;48.112;18.418;2022-08-20T05:04:53;15.13;;;13.53;;
24259;SDS011;12384;48.112;18.418;2022-08-20T05:07:22;14.50;;;13.17;;
24259;SDS011;12384;48.112;18.418;2022-08-20T05:09:53;13.93;;;12.67;;
24259;SDS011;12384;48.112;18.418;2022-08-20T05:12:21;13.37;;;12.17;;
24259;SDS011;12384;48.112;18.418;2022-08-20T05:14:50;12.07;;;11.13;;
24259;SDS011;12384;48.112;18.418;2022-08-20T05:17:19;11.50;;;10.47;;
24259;SDS011;12384;48.112;18.418;2022-08-20T05:19:50;11.33;;;10.37;;
24259;SDS011;12384;48.112;18.418;2022-08-20T05:22:19;11.53;;;10.63;;
24259;SDS011;12384;48.112;18.418;2022-08-20T05:24:48;16.13;;;12.93;;
24259;SDS011;12384;48.112;18.418;2022-08-20T05:27:19;14.97;;;13.50;;
24259;SDS011;12384;48.112;18.418;2022-08-20T05:29:50;12.50;;;11.40;;
24259;SDS011;12384;48.112;18.418;2022-08-20T05:32:19;12.77;;;11.57;;
24259;SDS011;12384;48.112;18.418;2022-08-20T05:34:48;19.33;;;14.60;;
24259;SDS011;12384;48.112;18.418;2022-08-20T05:37:16;12.50;;;11.30;;
24259;SDS011;12384;48.112;18.418;2022-08-20T05:39:45;11.70;;;10.70;;
24259;SDS011;12384;48.112;18.418;2022-08-20T05:42:13;10.97;;;10.07;;
24259;SDS011;12384;48.112;18.418;2022-08-20T05:44:44;11.37;;;10.43;;
24259;SDS011;12384;48.112;18.418;2022-08-20T05:47:13;9.80;;;8.90;;
24259;SDS011;12384;48.112;18.418;2022-08-20T05:49:43;10.40;;;9.60;;
24259;SDS011;12384;48.112;18.418;2022-08-20T05:52:12;8.70;;;8.00;;
24259;SDS011;12384;48.112;18.418;2022-08-20T05:54:43;8.90;;;8.10;;
24259;SDS011;12384;48.112;18.418;2022-08-20T05:57:15;9.40;;;8.60;;
24259;SDS011;12384;48.112;18.418;2022-08-20T05:59:47;11.60;;;10.40;;
24259;SDS011;12384;48.112;18.418;2022-08-20T06:02:15;11.63;;;10.53;;
24259;SDS011;12384;48.112;18.418;2022-08-20T06:05:01;10.00;;;9.27;;
24259;SDS011;12384;48.112;18.418;2022-08-20T06:07:30;10.20;;;8.80;;
24259;SDS011;12384;48.112;18.418;2022-08-20T06:09:58;9.53;;;8.63;;
24259;SDS011;12384;48.112;18.418;2022-08-20T06:12:27;9.27;;;8.20;;
24259;SDS011;12384;48.112;18.418;2022-08-20T06:14:57;10.17;;;8.93;;
24259;SDS011;12384;48.112;18.418;2022-08-20T06:17:25;9.47;;;8.67;;
24259;SDS011;12384;48.112;18.418;2022-08-20T06:20:06;10.30;;;9.40;;
24259;SDS011;12384;48.112;18.418;2022-08-20T06:22:36;12.17;;;10.90;;
24259;SDS011;12384;48.112;18.418;2022-08-20T06:25:05;12.73;;;11.43;;
24259;SDS011;12384;48.112;18.418;2022-08-20T06:27:36;14.07;;;12.63;;
24259;SDS011;12384;48.112;18.418;2022-08-20T06:30:07;15.47;;;14.03;;
24259;SDS011;12384;48.112;18.418;2022-08-20T06:32:37;16.40;;;14.90;;
24259;SDS011;12384;48.112;18.418;2022-08-20T06:35:07;15.50;;;13.87;;
24259;SDS011;12384;48.112;18.418;2022-08-20T06:37:37;15.57;;;13.67;;
24259;SDS011;12384;48.112;18.418;2022-08-20T06:40:08;14.07;;;12.77;;
24259;SDS011;12384;48.112;18.418;2022-08-20T06:42:38;14.53;;;13.33;;
24259;SDS011;12384;48.112;18.418;2022-08-20T06:45:16;12.40;;;11.30;;
24259;SDS011;12384;48.112;18.418;2022-08-20T06:47:50;11.40;;;10.33;;
24259;SDS011;12384;48.112;18.418;2022-08-20T06:50:19;11.43;;;10.30;;
24259;SDS011;12384;48.112;18.418;2022-08-20T06:52:49;11.07;;;10.10;;
24259;SDS011;12384;48.112;18.418;2022-08-20T06:55:19;9.87;;;8.87;;
24259;SDS011;12384;48.112;18.418;2022-08-20T06:57:54;9.50;;;8.63;;
24259;SDS011;12384;48.112;18.418;2022-08-20T07:00:26;10.87;;;9.23;;
24259;SDS011;12384;48.112;18.418;2022-08-20T07:02:57;9.40;;;8.43;;
24259;SDS011;12384;48.112;18.418;2022-08-20T07:05:26;12.23;;;9.87;;
24259;SDS011;12384;48.112;18.418;2022-08-20T07:07:56;10.60;;;9.60;;
24259;SDS011;12384;48.112;18.418;2022-08-20T07:10:25;10.03;;;8.73;;
24259;SDS011;12384;48.112;18.418;2022-08-20T07:12:55;11.17;;;10.07;;
24259;SDS011;12384;48.112;18.418;2022-08-20T07:15:26;11.33;;;8.97;;
24259;SDS011;12384;48.112;18.418;2022-08-20T07:17:55;10.30;;;9.37;;
24259;SDS011;12384;48.112;18.418;2022-08-20T07:20:27;8.90;;;8.10;;
24259;SDS011;12384;48.112;18.418;2022-08-20T07:22:57;9.37;;;8.57;;
24259;SDS011;12384;48.112;18.418;2022-08-20T07:25:26;10.53;;;8.53;;
24259;SDS011;12384;48.112;18.418;2022-08-20T07:27:59;9.80;;;8.77;;
24259;SDS011;12384;48.112;18.418;2022-08-20T07:30:29;11.13;;;8.70;;
24259;SDS011;12384;48.112;18.418;2022-08-20T07:33:23;11.43;;;9.37;;
24259;SDS011;12384;48.112;18.418;2022-08-20T07:35:54;10.73;;;9.30;;
24259;SDS011;12384;48.112;18.418;2022-08-20T07:38:23;10.40;;;9.40;;
24259;SDS011;12384;48.112;18.418;2022-08-20T07:40:55;10.93;;;8.93;;
24259;SDS011;12384;48.112;18.418;2022-08-20T07:43:25;10.47;;;9.37;;
24259;SDS011;12384;48.112;18.418;2022-08-20T07:45:56;9.20;;;8.30;;
24259;SDS011;12384;48.112;18.418;2022-08-20T07:48:29;9.93;;;7.70;;
24259;SDS011;12384;48.112;18.418;2022-08-20T07:50:59;12.23;;;8.00;;
24259;SDS011;12384;48.112;18.418;2022-08-20T07:53:29;8.40;;;7.60;;
24259;SDS011;12384;48.112;18.418;2022-08-20T07:56:02;8.05;;;7.35;;
24259;SDS011;12384;48.112;18.418;2022-08-20T07:58:33;9.77;;;8.87;;
24259;SDS011;12384;48.112;18.418;2022-08-20T08:01:05;9.90;;;9.00;;
24259;SDS011;12384;48.112;18.418;2022-08-20T08:03:33;11.00;;;10.00;;
24259;SDS011;12384;48.112;18.418;2022-08-20T08:06:15;12.07;;;10.90;;
24259;SDS011;12384;48.112;18.418;2022-08-20T08:08:56;11.73;;;10.67;;
24259;SDS011;12384;48.112;18.418;2022-08-20T08:11:30;12.17;;;11.10;;
24259;SDS011;12384;48.112;18.418;2022-08-20T08:14:00;11.57;;;10.57;;
24259;SDS011;12384;48.112;18.418;2022-08-20T08:16:31;13.00;;;12.10;;
24259;SDS011;12384;48.112;18.418;2022-08-20T08:19:00;12.87;;;11.90;;
24259;SDS011;12384;48.112;18.418;2022-08-20T08:21:32;11.97;;;10.90;;
24259;SDS011;12384;48.112;18.418;2022-08-20T08:24:01;13.37;;;12.47;;
24259;SDS011;12384;48.112;18.418;2022-08-20T08:26:30;14.77;;;13.27;;
24259;SDS011;12384;48.112;18.418;2022-08-20T08:28:58;12.33;;;11.40;;
24259;SDS011;12384;48.112;18.418;2022-08-20T08:31:28;12.07;;;11.20;;
24259;SDS011;12384;48.112;18.418;2022-08-20T08:33:57;12.80;;;11.70;;
24259;SDS011;12384;48.112;18.418;2022-08-20T08:36:26;12.07;;;11.07;;
24259;SDS011;12384;48.112;18.418;2022-08-20T08:38:54;12.90;;;12.00;;
24259;SDS011;12384;48.112;18.418;2022-08-20T08:41:25;12.40;;;11.37;;
24259;SDS011;12384;48.112;18.418;2022-08-20T08:43:59;14.33;;;13.27;;
24259;SDS011;12384;48.112;18.418;2022-08-20T08:46:35;15.30;;;13.80;;
24259;SDS011;12384;48.112;18.418;2022-08-20T08:49:10;15.47;;;14.17;;
24259;SDS011;12384;48.112;18.418;2022-08-20T08:51:42;18.33;;;16.60;;
24259;SDS011;12384;48.112;18.418;2022-08-20T08:54:15;17.87;;;16.27;;
24259;SDS011;12384;48.112;18.418;2022-08-20T08:56:47;16.17;;;15.07;;
24259;SDS011;12384;48.112;18.418;2022-08-20T08:59:16;15.73;;;14.57;;
24259;SDS011;12384;48.112;18.418;2022-08-20T09:01:47;16.13;;;14.83;;
24259;SDS011;12384;48.112;18.418;2022-08-20T09:04:26;16.53;;;15.33;;
24259;SDS011;12384;48.112;18.418;2022-08-20T09:06:57;17.00;;;15.80;;
24259;SDS011;12384;48.112;18.418;2022-08-20T09:09:29;17.60;;;16.20;;
24259;SDS011;12384;48.112;18.418;2022-08-20T09:12:02;17.50;;;16.10;;
24259;SDS011;12384;48.112;18.418;2022-08-20T09:14:32;17.47;;;16.07;;
24259;SDS011;12384;48.112;18.418;2022-08-20T09:17:02;16.17;;;14.97;;
24259;SDS011;12384;48.112;18.418;2022-08-20T09:19:32;15.83;;;14.70;;
24259;SDS011;12384;48.112;18.418;2022-08-20T09:22:06;20.73;;;18.60;;
24259;SDS011;12384;48.112;18.418;2022-08-20T09:24:35;17.30;;;15.97;;
24259;SDS011;12384;48.112;18.418;2022-08-20T09:27:04;17.13;;;15.83;;
24259;SDS011;12384;48.112;18.418;2022-08-20T09:29:33;16.57;;;15.47;;
24259;SDS011;12384;48.112;18.418;2022-08-20T09:32:02;17.20;;;16.00;;
24259;SDS011;12384;48.112;18.418;2022-08-20T09:34:35;20.07;;;18.47;;
24259;SDS011;12384;48.112;18.418;2022-08-20T09:37:04;19.60;;;17.70;;
24259;SDS011;12384;48.112;18.418;2022-08-20T09:39:33;17.27;;;15.87;;
24259;SDS011;12384;48.112;18.418;2022-08-20T09:42:05;16.93;;;15.57;;
24259;SDS011;12384;48.112;18.418;2022-08-20T09:44:35;17.80;;;16.50;;
24259;SDS011;12384;48.112;18.418;2022-08-20T09:47:04;19.00;;;17.73;;
24259;SDS011;12384;48.112;18.418;2022-08-20T09:49:33;21.17;;;19.33;;
24259;SDS011;12384;48.112;18.418;2022-08-20T09:52:04;18.53;;;17.03;;
24259;SDS011;12384;48.112;18.418;2022-08-20T09:54:35;17.90;;;16.50;;
24259;SDS011;12384;48.112;18.418;2022-08-20T09:57:12;17.17;;;15.97;;
24259;SDS011;12384;48.112;18.418;2022-08-20T09:59:42;17.80;;;16.50;;
24259;SDS011;12384;48.112;18.418;2022-08-20T10:02:11;16.60;;;15.30;;
24259;SDS011;12384;48.112;18.418;2022-08-20T10:04:41;16.93;;;15.67;;
24259;SDS011;12384;48.112;18.418;2022-08-20T10:07:10;22.43;;;20.23;;
24259;SDS011;12384;48.112;18.418;2022-08-20T10:09:41;19.60;;;17.90;;
24259;SDS011;12384;48.112;18.418;2022-08-20T10:12:10;18.03;;;16.63;;
24259;SDS011;12384;48.112;18.418;2022-08-20T10:14:39;20.70;;;18.80;;
24259;SDS011;12384;48.112;18.418;2022-08-20T10:17:07;17.37;;;16.07;;
24259;SDS011;12384;48.112;18.418;2022-08-20T10:19:36;16.73;;;15.43;;
24259;SDS011;12384;48.112;18.418;2022-08-20T10:22:06;16.47;;;15.27;;
24259;SDS011;12384;48.112;18.418;2022-08-20T10:24:34;15.97;;;14.87;;
24259;SDS011;12384;48.112;18.418;2022-08-20T10:27:03;15.97;;;14.87;;
24259;SDS011;12384;48.112;18.418;2022-08-20T10:29:32;15.73;;;14.63;;
24259;SDS011;12384;48.112;18.418;2022-08-20T10:32:12;15.50;;;14.40;;
24259;SDS011;12384;48.112;18.418;2022-08-20T10:34:42;16.13;;;14.90;;
24259;SDS011;12384;48.112;18.418;2022-08-20T10:37:15;17.70;;;16.40;;
24259;SDS011;12384;48.112;18.418;2022-08-20T10:39:44;20.03;;;18.10;;
24259;SDS011;12384;48.112;18.418;2022-08-20T10:42:13;24.97;;;22.63;;
24259;SDS011;12384;48.112;18.418;2022-08-20T10:44:42;20.17;;;18.57;;
24259;SDS011;12384;48.112;18.418;2022-08-20T10:47:14;19.53;;;17.73;;
24259;SDS011;12384;48.112;18.418;2022-08-20T10:49:44;18.10;;;16.70;;
24259;SDS011;12384;48.112;18.418;2022-08-20T10:52:14;18.43;;;16.93;;
24259;SDS011;12384;48.112;18.418;2022-08-20T10:54:43;19.13;;;17.50;;
24259;SDS011;12384;48.112;18.418;2022-08-20T10:57:13;18.20;;;16.80;;
24259;SDS011;12384;48.112;18.418;2022-08-20T10:59:44;21.37;;;19.27;;
24259;SDS011;12384;48.112;18.418;2022-08-20T11:02:14;22.63;;;20.60;;
24259;SDS011;12384;48.112;18.418;2022-08-20T11:04:43;23.50;;;21.47;;
24259;SDS011;12384;48.112;18.418;2022-08-20T11:07:14;22.80;;;20.77;;
24259;SDS011;12384;48.112;18.418;2022-08-20T11:09:45;21.10;;;19.13;;
24259;SDS011;12384;48.112;18.418;2022-08-20T11:12:16;20.50;;;18.73;;
24259;SDS011;12384;48.112;18.418;2022-08-20T11:14:46;19.40;;;17.90;;
24259;SDS011;12384;48.112;18.418;2022-08-20T11:17:20;19.47;;;17.87;;
24259;SDS011;12384;48.112;18.418;2022-08-20T11:19:50;20.60;;;18.87;;
24259;SDS011;12384;48.112;18.418;2022-08-20T11:22:20;18.53;;;17.13;;
24259;SDS011;12384;48.112;18.418;2022-08-20T11:24:49;17.10;;;15.90;;
24259;SDS011;12384;48.112;18.418;2022-08-20T11:27:27;17.80;;;16.40;;
24259;SDS011;12384;48.112;18.418;2022-08-20T11:30:00;19.93;;;18.33;;
24259;SDS011;12384;48.112;18.418;2022-08-20T11:32:29;20.77;;;18.87;;
24259;SDS011;12384;48.112;18.418;2022-08-20T11:34:58;20.07;;;18.10;;
24259;SDS011;12384;48.112;18.418;2022-08-20T11:37:45;20.60;;;18.50;;
24259;SDS011;12384;48.112;18.418;2022-08-20T11:40:14;20.17;;;18.17;;
24259;SDS011;12384;48.112;18.418;2022-08-20T11:42:43;18.60;;;17.00;;
24259;SDS011;12384;48.112;18.418;2022-08-20T11:45:32;16.90;;;15.50;;
24259;SDS011;12384;48.112;18.418;2022-08-20T11:48:03;16.50;;;15.20;;
24259;SDS011;12384;48.112;18.418;2022-08-20T11:50:32;16.53;;;15.13;;
24259;SDS011;12384;48.112;18.418;2022-08-20T11:53:02;14.33;;;13.33;;
24259;SDS011;12384;48.112;18.418;2022-08-20T11:55:33;11.33;;;10.23;;
24259;SDS011;12384;48.112;18.418;2022-08-20T11:58:01;11.67;;;10.13;;
24259;SDS011;12384;48.112;18.418;2022-08-20T12:00:30;10.47;;;9.57;;
24259;SDS011;12384;48.112;18.418;2022-08-20T12:03:00;9.63;;;8.73;;
24259;SDS011;12384;48.112;18.418;2022-08-20T12:05:31;10.53;;;6.70;;
24259;SDS011;12384;48.112;18.418;2022-08-20T12:08:00;6.17;;;5.60;;
24259;SDS011;12384;48.112;18.418;2022-08-20T12:10:30;6.73;;;6.23;;
24259;SDS011;12384;48.112;18.418;2022-08-20T12:12:59;7.50;;;6.80;;
24259;SDS011;12384;48.112;18.418;2022-08-20T12:15:28;8.50;;;7.72;;
24259;SDS011;12384;48.112;18.418;2022-08-20T12:17:57;8.88;;;7.97;;
24259;SDS011;12384;48.112;18.418;2022-08-20T12:20:26;9.13;;;8.43;;
24259;SDS011;12384;48.112;18.418;2022-08-20T12:22:55;9.68;;;8.88;;
24259;SDS011;12384;48.112;18.418;2022-08-20T12:25:25;10.32;;;9.43;;
24259;SDS011;12384;48.112;18.418;2022-08-20T12:27:54;10.00;;;9.10;;
24259;SDS011;12384;48.112;18.418;2022-08-20T12:30:23;9.85;;;9.15;;
24259;SDS011;12384;48.112;18.418;2022-08-20T12:32:51;10.93;;;10.13;;
24259;SDS011;12384;48.112;18.418;2022-08-20T12:35:20;10.60;;;9.75;;
24259;SDS011;12384;48.112;18.418;2022-08-20T12:37:49;11.27;;;10.45;;
24259;SDS011;12384;48.112;18.418;2022-08-20T12:40:19;10.25;;;9.55;;
24259;SDS011;12384;48.112;18.418;2022-08-20T12:42:59;11.00;;;10.10;;
24259;SDS011;12384;48.112;18.418;2022-08-20T12:45:29;10.95;;;9.95;;
24259;SDS011;12384;48.112;18.418;2022-08-20T12:48:00;10.20;;;9.32;;
24259;SDS011;12384;48.112;18.418;2022-08-20T12:50:29;10.07;;;9.27;;
24259;SDS011;12384;48.112;18.418;2022-08-20T12:52:59;10.10;;;9.35;;
24259;SDS011;12384;48.112;18.418;2022-08-20T12:55:28;12.57;;;11.50;;
24259;SDS011;12384;48.112;18.418;2022-08-20T12:57:58;11.07;;;10.27;;
24259;SDS011;12384;48.112;18.418;2022-08-20T13:00:31;10.60;;;9.80;;
24259;SDS011;12384;48.112;18.418;2022-08-20T13:03:01;12.25;;;11.30;;
24259;SDS011;12384;48.112;18.418;2022-08-20T13:05:32;11.25;;;10.35;;
24259;SDS011;12384;48.112;18.418;2022-08-20T13:08:03;10.90;;;10.20;;
24259;SDS011;12384;48.112;18.418;2022-08-20T13:10:35;11.35;;;10.35;;
24259;SDS011;12384;48.112;18.418;2022-08-20T13:13:11;12.32;;;11.10;;
24259;SDS011;12384;48.112;18.418;2022-08-20T13:15:45;11.18;;;10.27;;
24259;SDS011;12384;48.112;18.418;2022-08-20T13:18:13;11.00;;;10.00;;
24259;SDS011;12384;48.112;18.418;2022-08-20T13:20:42;12.38;;;11.30;;
24259;SDS011;12384;48.112;18.418;2022-08-20T13:23:10;11.43;;;10.60;;
24259;SDS011;12384;48.112;18.418;2022-08-20T13:25:39;11.10;;;10.23;;
24259;SDS011;12384;48.112;18.418;2022-08-20T13:28:07;10.80;;;10.00;;
24259;SDS011;12384;48.112;18.418;2022-08-20T13:30:37;11.38;;;10.18;;
24259;SDS011;12384;48.112;18.418;2022-08-20T13:33:07;10.10;;;9.30;;
24259;SDS011;12384;48.112;18.418;2022-08-20T13:35:35;10.63;;;9.82;;
24259;SDS011;12384;48.112;18.418;2022-08-20T13:38:04;10.00;;;9.30;;
24259;SDS011;12384;48.112;18.418;2022-08-20T13:40:33;10.93;;;10.02;;
24259;SDS011;12384;48.112;18.418;2022-08-20T13:43:01;11.15;;;10.32;;
24259;SDS011;12384;48.112;18.418;2022-08-20T13:45:33;10.88;;;10.13;;
24259;SDS011;12384;48.112;18.418;2022-08-20T13:48:04;10.25;;;9.65;;
24259;SDS011;12384;48.112;18.418;2022-08-20T13:50:40;11.82;;;10.65;;
24259;SDS011;12384;48.112;18.418;2022-08-20T13:53:13;11.88;;;10.90;;
24259;SDS011;12384;48.112;18.418;2022-08-20T13:55:42;11.43;;;10.43;;
24259;SDS011;12384;48.112;18.418;2022-08-20T13:58:11;12.15;;;11.15;;
24259;SDS011;12384;48.112;18.418;2022-08-20T14:00:40;12.57;;;11.48;;
24259;SDS011;12384;48.112;18.418;2022-08-20T14:03:10;12.15;;;11.15;;
24259;SDS011;12384;48.112;18.418;2022-08-20T14:05:45;12.02;;;11.02;;
24259;SDS011;12384;48.112;18.418;2022-08-20T14:08:15;11.60;;;10.68;;
24259;SDS011;12384;48.112;18.418;2022-08-20T14:10:45;10.40;;;9.68;;
24259;SDS011;12384;48.112;18.418;2022-08-20T14:13:17;10.65;;;9.73;;
24259;SDS011;12384;48.112;18.418;2022-08-20T14:15:47;10.50;;;9.60;;
24259;SDS011;12384;48.112;18.418;2022-08-20T14:18:18;11.27;;;10.35;;
24259;SDS011;12384;48.112;18.418;2022-08-20T14:20:46;10.77;;;9.88;;
24259;SDS011;12384;48.112;18.418;2022-08-20T14:23:15;11.30;;;10.45;;
24259;SDS011;12384;48.112;18.418;2022-08-20T14:25:44;11.70;;;10.80;;
24259;SDS011;12384;48.112;18.418;2022-08-20T14:28:15;11.70;;;10.67;;
24259;SDS011;12384;48.112;18.418;2022-08-20T14:30:45;12.60;;;11.55;;
24259;SDS011;12384;48.112;18.418;2022-08-20T14:33:20;11.88;;;11.07;;